sensor_id;sensor_type;location;lat;lon;timestamp;temperature;humidity
38788;DHT22;24536;45.488;12.238;2022-08-19T00:01:56;23.70;93.30
38788;DHT22;24536;45.488;12.238;2022-08-19T00:04:25;23.80;93.20
38788;DHT22;24536;45.488;12.238;2022-08-19T00:06:52;23.90;93.20
38788;DHT22;24536;45.488;12.238;2022-08-19T00:09:19;23.90;93.20
38788;DHT22;24536;45.488;12.238;2022-08-19T00:11:46;23.90;93.20
38788;DHT22;24536;45.488;12.238;2022-08-19T00:14:14;23.90;93.20
38788;DHT22;24536;45.488;12.238;2022-08-19T00:16:42;23.90;93.30
38788;DHT22;24536;45.488;12.238;2022-08-19T00:19:10;23.90;93.30
38788;DHT22;24536;45.488;12.238;2022-08-19T00:21:36;23.90;93.30
38788;DHT22;24536;45.488;12.238;2022-08-19T00:24:06;23.90;93.30
38788;DHT22;24536;45.488;12.238;2022-08-19T00:26:31;23.90;93.30
38788;DHT22;24536;45.488;12.238;2022-08-19T00:28:57;23.90;93.20
38788;DHT22;24536;45.488;12.238;2022-08-19T00:31:23;23.90;93.20
38788;DHT22;24536;45.488;12.238;2022-08-19T00:33:50;23.90;93.10
38788;DHT22;24536;45.488;12.238;2022-08-19T00:36:16;23.80;93.00
38788;DHT22;24536;45.488;12.238;2022-08-19T00:38:42;23.90;93.10
38788;DHT22;24536;45.488;12.238;2022-08-19T00:41:12;23.80;93.20
38788;DHT22;24536;45.488;12.238;2022-08-19T00:43:38;23.70;93.20
38788;DHT22;24536;45.488;12.238;2022-08-19T00:46:04;23.50;93.80
38788;DHT22;24536;45.488;12.238;2022-08-19T00:48:31;23.40;94.20
38788;DHT22;24536;45.488;12.238;2022-08-19T00:50:57;23.50;94.00
38788;DHT22;24536;45.488;12.238;2022-08-19T00:53:26;23.50;93.70
38788;DHT22;24536;45.488;12.238;2022-08-19T00:55:56;23.50;93.60
38788;DHT22;24536;45.488;12.238;2022-08-19T00:58:28;23.60;93.70
38788;DHT22;24536;45.488;12.238;2022-08-19T01:00:54;23.60;93.80
38788;DHT22;24536;45.488;12.238;2022-08-19T01:03:21;23.70;93.90
38788;DHT22;24536;45.488;12.238;2022-08-19T01:05:49;23.70;93.90
38788;DHT22;24536;45.488;12.238;2022-08-19T01:08:17;23.70;93.80
38788;DHT22;24536;45.488;12.238;2022-08-19T01:10:46;23.60;93.70
38788;DHT22;24536;45.488;12.238;2022-08-19T01:13:15;23.40;93.70
38788;DHT22;24536;45.488;12.238;2022-08-19T01:15:48;23.40;93.90
38788;DHT22;24536;45.488;12.238;2022-08-19T01:18:17;23.40;94.00
38788;DHT22;24536;45.488;12.238;2022-08-19T01:20:43;23.50;94.10
38788;DHT22;24536;45.488;12.238;2022-08-19T01:23:10;23.50;94.10
38788;DHT22;24536;45.488;12.238;2022-08-19T01:25:47;23.50;94.20
38788;DHT22;24536;45.488;12.238;2022-08-19T01:28:17;23.50;94.20
38788;DHT22;24536;45.488;12.238;2022-08-19T01:30:44;23.50;94.10
38788;DHT22;24536;45.488;12.238;2022-08-19T01:33:09;23.50;94.20
38788;DHT22;24536;45.488;12.238;2022-08-19T01:35:35;23.60;94.00
38788;DHT22;24536;45.488;12.238;2022-08-19T01:38:05;23.50;93.80
38788;DHT22;24536;45.488;12.238;2022-08-19T01:40:37;23.60;93.80
38788;DHT22;24536;45.488;12.238;2022-08-19T01:43:05;23.50;93.90
38788;DHT22;24536;45.488;12.238;2022-08-19T01:45:33;23.60;94.00
38788;DHT22;24536;45.488;12.238;2022-08-19T01:47:59;23.60;94.00
38788;DHT22;24536;45.488;12.238;2022-08-19T01:50:25;23.50;94.10
38788;DHT22;24536;45.488;12.238;2022-08-19T01:52:52;23.40;94.10
38788;DHT22;24536;45.488;12.238;2022-08-19T01:55:21;23.30;94.30
38788;DHT22;24536;45.488;12.238;2022-08-19T01:57:53;23.30;94.40
38788;DHT22;24536;45.488;12.238;2022-08-19T02:00:22;23.30;94.50
38788;DHT22;24536;45.488;12.238;2022-08-19T02:02:48;23.30;94.50
38788;DHT22;24536;45.488;12.238;2022-08-19T02:05:13;23.30;95.20
38788;DHT22;24536;45.488;12.238;2022-08-19T02:07:40;23.30;94.90
38788;DHT22;24536;45.488;12.238;2022-08-19T02:10:15;23.40;95.00
38788;DHT22;24536;45.488;12.238;2022-08-19T02:12:42;23.40;95.00
38788;DHT22;24536;45.488;12.238;2022-08-19T02:15:08;23.40;95.00
38788;DHT22;24536;45.488;12.238;2022-08-19T02:17:35;23.20;95.40
38788;DHT22;24536;45.488;12.238;2022-08-19T02:20:00;23.10;95.60
38788;DHT22;24536;45.488;12.238;2022-08-19T02:22:26;23.20;95.30
38788;DHT22;24536;45.488;12.238;2022-08-19T02:24:53;23.30;95.20
38788;DHT22;24536;45.488;12.238;2022-08-19T02:27:20;23.20;95.10
38788;DHT22;24536;45.488;12.238;2022-08-19T02:29:46;23.20;95.10
38788;DHT22;24536;45.488;12.238;2022-08-19T02:32:13;23.30;94.90
38788;DHT22;24536;45.488;12.238;2022-08-19T02:34:39;23.30;94.70
38788;DHT22;24536;45.488;12.238;2022-08-19T02:37:05;23.30;94.50
38788;DHT22;24536;45.488;12.238;2022-08-19T02:39:30;23.30;93.80
38788;DHT22;24536;45.488;12.238;2022-08-19T02:41:56;23.30;93.80
38788;DHT22;24536;45.488;12.238;2022-08-19T02:44:24;23.30;93.70
38788;DHT22;24536;45.488;12.238;2022-08-19T02:46:50;23.10;93.10
38788;DHT22;24536;45.488;12.238;2022-08-19T02:49:16;23.00;94.00
38788;DHT22;24536;45.488;12.238;2022-08-19T02:51:44;23.00;93.70
38788;DHT22;24536;45.488;12.238;2022-08-19T02:54:11;23.00;93.40
38788;DHT22;24536;45.488;12.238;2022-08-19T02:56:39;23.00;93.30
38788;DHT22;24536;45.488;12.238;2022-08-19T02:59:06;22.80;92.80
38788;DHT22;24536;45.488;12.238;2022-08-19T03:01:35;22.70;93.40
38788;DHT22;24536;45.488;12.238;2022-08-19T03:04:04;22.60;93.30
38788;DHT22;24536;45.488;12.238;2022-08-19T03:06:31;22.60;93.70
38788;DHT22;24536;45.488;12.238;2022-08-19T03:08:57;22.40;93.60
38788;DHT22;24536;45.488;12.238;2022-08-19T03:11:26;22.50;93.10
38788;DHT22;24536;45.488;12.238;2022-08-19T03:13:52;22.40;93.20
38788;DHT22;24536;45.488;12.238;2022-08-19T03:16:19;22.50;93.20
38788;DHT22;24536;45.488;12.238;2022-08-19T03:18:45;22.60;92.80
38788;DHT22;24536;45.488;12.238;2022-08-19T03:21:24;22.60;92.60
38788;DHT22;24536;45.488;12.238;2022-08-19T03:23:53;22.50;91.80
38788;DHT22;24536;45.488;12.238;2022-08-19T03:26:19;22.60;92.00
38788;DHT22;24536;45.488;12.238;2022-08-19T03:28:45;22.60;91.60
38788;DHT22;24536;45.488;12.238;2022-08-19T03:31:17;22.40;91.50
38788;DHT22;24536;45.488;12.238;2022-08-19T03:33:44;22.50;91.80
38788;DHT22;24536;45.488;12.238;2022-08-19T03:36:16;22.50;91.90
38788;DHT22;24536;45.488;12.238;2022-08-19T03:38:45;22.50;92.00
38788;DHT22;24536;45.488;12.238;2022-08-19T03:41:14;22.30;91.80
38788;DHT22;24536;45.488;12.238;2022-08-19T03:43:41;22.40;92.00
38788;DHT22;24536;45.488;12.238;2022-08-19T03:46:10;22.50;91.80
38788;DHT22;24536;45.488;12.238;2022-08-19T03:48:37;22.50;92.10
38788;DHT22;24536;45.488;12.238;2022-08-19T03:51:04;22.50;92.20
38788;DHT22;24536;45.488;12.238;2022-08-19T03:53:31;22.60;92.10
38788;DHT22;24536;45.488;12.238;2022-08-19T03:55:57;22.60;92.00
38788;DHT22;24536;45.488;12.238;2022-08-19T03:58:26;22.50;92.30
38788;DHT22;24536;45.488;12.238;2022-08-19T04:00:57;22.60;92.10
38788;DHT22;24536;45.488;12.238;2022-08-19T04:03:26;22.50;92.20
38788;DHT22;24536;45.488;12.238;2022-08-19T04:05:53;22.60;92.10
38788;DHT22;24536;45.488;12.238;2022-08-19T04:08:19;22.60;92.20
38788;DHT22;24536;45.488;12.238;2022-08-19T04:10:48;22.50;92.20
38788;DHT22;24536;45.488;12.238;2022-08-19T04:13:16;22.50;92.40
38788;DHT22;24536;45.488;12.238;2022-08-19T04:15:43;22.50;92.10
38788;DHT22;24536;45.488;12.238;2022-08-19T04:18:10;22.30;92.50
38788;DHT22;24536;45.488;12.238;2022-08-19T04:20:54;22.30;92.70
38788;DHT22;24536;45.488;12.238;2022-08-19T04:23:20;22.50;92.80
38788;DHT22;24536;45.488;12.238;2022-08-19T04:25:45;22.50;92.80
38788;DHT22;24536;45.488;12.238;2022-08-19T04:28:12;22.50;93.20
38788;DHT22;24536;45.488;12.238;2022-08-19T04:30:45;22.50;92.90
38788;DHT22;24536;45.488;12.238;2022-08-19T04:33:13;22.50;92.90
38788;DHT22;24536;45.488;12.238;2022-08-19T04:35:44;22.60;92.80
38788;DHT22;24536;45.488;12.238;2022-08-19T04:38:11;22.30;92.50
38788;DHT22;24536;45.488;12.238;2022-08-19T04:40:41;22.40;92.80
38788;DHT22;24536;45.488;12.238;2022-08-19T04:43:26;22.30;92.80
38788;DHT22;24536;45.488;12.238;2022-08-19T04:45:52;22.30;92.90
38788;DHT22;24536;45.488;12.238;2022-08-19T04:48:18;22.40;92.90
38788;DHT22;24536;45.488;12.238;2022-08-19T04:50:52;22.00;93.00
38788;DHT22;24536;45.488;12.238;2022-08-19T04:53:32;22.20;93.00
38788;DHT22;24536;45.488;12.238;2022-08-19T04:55:59;22.30;93.00
38788;DHT22;24536;45.488;12.238;2022-08-19T04:58:27;22.30;92.90
38788;DHT22;24536;45.488;12.238;2022-08-19T05:00:54;22.40;93.00
38788;DHT22;24536;45.488;12.238;2022-08-19T05:03:20;22.40;93.20
38788;DHT22;24536;45.488;12.238;2022-08-19T05:05:47;22.40;92.90
38788;DHT22;24536;45.488;12.238;2022-08-19T05:08:18;22.40;92.90
38788;DHT22;24536;45.488;12.238;2022-08-19T05:10:49;22.40;92.80
38788;DHT22;24536;45.488;12.238;2022-08-19T05:13:17;22.30;92.90
38788;DHT22;24536;45.488;12.238;2022-08-19T05:15:44;22.30;93.00
38788;DHT22;24536;45.488;12.238;2022-08-19T05:18:10;22.30;93.40
38788;DHT22;24536;45.488;12.238;2022-08-19T05:20:54;22.30;93.20
38788;DHT22;24536;45.488;12.238;2022-08-19T05:23:38;22.30;93.40
38788;DHT22;24536;45.488;12.238;2022-08-19T05:26:04;22.30;93.20
38788;DHT22;24536;45.488;12.238;2022-08-19T05:28:30;22.30;93.10
38788;DHT22;24536;45.488;12.238;2022-08-19T05:30:56;22.30;93.10
38788;DHT22;24536;45.488;12.238;2022-08-19T05:33:22;22.40;93.20
38788;DHT22;24536;45.488;12.238;2022-08-19T05:35:49;22.40;93.10
38788;DHT22;24536;45.488;12.238;2022-08-19T05:38:18;22.40;93.10
38788;DHT22;24536;45.488;12.238;2022-08-19T05:40:45;22.40;93.10
38788;DHT22;24536;45.488;12.238;2022-08-19T05:43:13;22.50;93.00
38788;DHT22;24536;45.488;12.238;2022-08-19T05:45:42;22.30;92.80
38788;DHT22;24536;45.488;12.238;2022-08-19T05:48:13;22.30;93.10
38788;DHT22;24536;45.488;12.238;2022-08-19T05:50:40;22.30;93.10
38788;DHT22;24536;45.488;12.238;2022-08-19T05:53:07;22.30;93.20
38788;DHT22;24536;45.488;12.238;2022-08-19T05:55:34;22.30;93.20
38788;DHT22;24536;45.488;12.238;2022-08-19T05:58:00;22.30;93.20
38788;DHT22;24536;45.488;12.238;2022-08-19T06:00:27;22.40;93.00
38788;DHT22;24536;45.488;12.238;2022-08-19T06:02:55;22.10;92.90
38788;DHT22;24536;45.488;12.238;2022-08-19T06:05:22;22.00;93.20
38788;DHT22;24536;45.488;12.238;2022-08-19T06:07:47;22.00;93.10
38788;DHT22;24536;45.488;12.238;2022-08-19T06:10:13;22.00;93.70
38788;DHT22;24536;45.488;12.238;2022-08-19T06:12:39;22.10;93.50
38788;DHT22;24536;45.488;12.238;2022-08-19T06:15:11;22.30;93.50
38788;DHT22;24536;45.488;12.238;2022-08-19T06:17:37;22.50;93.60
38788;DHT22;24536;45.488;12.238;2022-08-19T06:20:05;22.60;93.30
38788;DHT22;24536;45.488;12.238;2022-08-19T06:22:37;22.80;93.20
38788;DHT22;24536;45.488;12.238;2022-08-19T06:25:04;22.90;92.80
38788;DHT22;24536;45.488;12.238;2022-08-19T06:27:29;22.90;91.90
38788;DHT22;24536;45.488;12.238;2022-08-19T06:29:57;22.80;91.30
38788;DHT22;24536;45.488;12.238;2022-08-19T06:32:22;22.80;91.60
38788;DHT22;24536;45.488;12.238;2022-08-19T06:34:48;22.80;91.80
38788;DHT22;24536;45.488;12.238;2022-08-19T06:37:14;22.80;91.80
38788;DHT22;24536;45.488;12.238;2022-08-19T06:39:43;22.90;91.90
38788;DHT22;24536;45.488;12.238;2022-08-19T06:42:11;23.00;91.90
38788;DHT22;24536;45.488;12.238;2022-08-19T06:44:40;23.20;91.70
38788;DHT22;24536;45.488;12.238;2022-08-19T06:47:08;23.30;91.60
38788;DHT22;24536;45.488;12.238;2022-08-19T06:49:35;23.30;91.30
38788;DHT22;24536;45.488;12.238;2022-08-19T06:52:01;23.40;91.30
38788;DHT22;24536;45.488;12.238;2022-08-19T06:54:27;23.50;91.30
38788;DHT22;24536;45.488;12.238;2022-08-19T06:56:58;23.60;91.40
38788;DHT22;24536;45.488;12.238;2022-08-19T06:59:28;23.70;91.20
38788;DHT22;24536;45.488;12.238;2022-08-19T07:01:59;23.80;91.10
38788;DHT22;24536;45.488;12.238;2022-08-19T07:04:28;23.90;90.80
38788;DHT22;24536;45.488;12.238;2022-08-19T07:07:03;23.90;90.70
38788;DHT22;24536;45.488;12.238;2022-08-19T07:09:31;24.00;90.40
38788;DHT22;24536;45.488;12.238;2022-08-19T07:11:57;24.00;90.30
38788;DHT22;24536;45.488;12.238;2022-08-19T07:14:25;24.00;89.50
38788;DHT22;24536;45.488;12.238;2022-08-19T07:16:53;24.10;87.00
38788;DHT22;24536;45.488;12.238;2022-08-19T07:19:21;24.10;88.40
38788;DHT22;24536;45.488;12.238;2022-08-19T07:21:49;24.20;88.60
38788;DHT22;24536;45.488;12.238;2022-08-19T07:24:16;24.20;88.20
38788;DHT22;24536;45.488;12.238;2022-08-19T07:26:43;24.20;88.80
38788;DHT22;24536;45.488;12.238;2022-08-19T07:29:10;24.30;88.90
38788;DHT22;24536;45.488;12.238;2022-08-19T07:31:36;24.40;87.40
38788;DHT22;24536;45.488;12.238;2022-08-19T07:34:08;24.40;87.60
38788;DHT22;24536;45.488;12.238;2022-08-19T07:36:36;24.50;86.50
38788;DHT22;24536;45.488;12.238;2022-08-19T07:39:07;24.50;85.60
38788;DHT22;24536;45.488;12.238;2022-08-19T07:41:35;24.60;86.00
38788;DHT22;24536;45.488;12.238;2022-08-19T07:44:03;24.70;86.00
38788;DHT22;24536;45.488;12.238;2022-08-19T07:46:34;24.70;86.10
38788;DHT22;24536;45.488;12.238;2022-08-19T07:49:01;24.80;86.00
38788;DHT22;24536;45.488;12.238;2022-08-19T07:51:27;24.90;85.70
38788;DHT22;24536;45.488;12.238;2022-08-19T07:53:54;25.00;85.40
38788;DHT22;24536;45.488;12.238;2022-08-19T07:56:25;25.00;85.70
38788;DHT22;24536;45.488;12.238;2022-08-19T07:58:52;25.10;85.70
38788;DHT22;24536;45.488;12.238;2022-08-19T08:01:24;25.10;85.20
38788;DHT22;24536;45.488;12.238;2022-08-19T08:03:52;25.10;84.50
38788;DHT22;24536;45.488;12.238;2022-08-19T08:06:37;25.10;84.60
38788;DHT22;24536;45.488;12.238;2022-08-19T08:09:29;25.10;84.70
38788;DHT22;24536;45.488;12.238;2022-08-19T08:11:59;25.10;84.70
38788;DHT22;24536;45.488;12.238;2022-08-19T08:14:29;25.10;84.00
38788;DHT22;24536;45.488;12.238;2022-08-19T08:16:56;25.10;83.20
38788;DHT22;24536;45.488;12.238;2022-08-19T08:19:23;25.10;81.80
38788;DHT22;24536;45.488;12.238;2022-08-19T08:21:51;25.10;82.90
38788;DHT22;24536;45.488;12.238;2022-08-19T08:24:17;25.20;83.20
38788;DHT22;24536;45.488;12.238;2022-08-19T08:26:47;25.30;83.60
38788;DHT22;24536;45.488;12.238;2022-08-19T08:29:13;25.30;83.90
38788;DHT22;24536;45.488;12.238;2022-08-19T08:31:43;25.40;84.10
38788;DHT22;24536;45.488;12.238;2022-08-19T08:34:10;25.40;84.20
38788;DHT22;24536;45.488;12.238;2022-08-19T08:36:39;25.40;83.10
38788;DHT22;24536;45.488;12.238;2022-08-19T08:39:13;25.40;82.70
38788;DHT22;24536;45.488;12.238;2022-08-19T08:41:53;25.30;82.60
38788;DHT22;24536;45.488;12.238;2022-08-19T08:44:34;25.30;82.70
38788;DHT22;24536;45.488;12.238;2022-08-19T08:47:11;25.30;83.00
38788;DHT22;24536;45.488;12.238;2022-08-19T08:49:47;25.20;82.90
38788;DHT22;24536;45.488;12.238;2022-08-19T08:52:25;25.20;82.90
38788;DHT22;24536;45.488;12.238;2022-08-19T08:54:55;25.20;83.00
38788;DHT22;24536;45.488;12.238;2022-08-19T08:57:32;25.20;83.40
38788;DHT22;24536;45.488;12.238;2022-08-19T09:00:04;25.20;83.30
38788;DHT22;24536;45.488;12.238;2022-08-19T09:02:31;25.20;83.10
38788;DHT22;24536;45.488;12.238;2022-08-19T09:04:57;25.20;83.20
38788;DHT22;24536;45.488;12.238;2022-08-19T09:07:45;25.20;83.00
38788;DHT22;24536;45.488;12.238;2022-08-19T09:10:28;25.10;82.80
38788;DHT22;24536;45.488;12.238;2022-08-19T09:15:32;25.20;82.90
38788;DHT22;24536;45.488;12.238;2022-08-19T09:18:01;25.30;82.70
38788;DHT22;24536;45.488;12.238;2022-08-19T09:20:29;25.30;82.60
38788;DHT22;24536;45.488;12.238;2022-08-19T09:22:58;25.30;82.70
38788;DHT22;24536;45.488;12.238;2022-08-19T09:25:25;25.30;82.40
38788;DHT22;24536;45.488;12.238;2022-08-19T09:27:52;25.30;82.20
38788;DHT22;24536;45.488;12.238;2022-08-19T09:30:21;25.40;82.10
38788;DHT22;24536;45.488;12.238;2022-08-19T09:32:48;25.40;81.60
38788;DHT22;24536;45.488;12.238;2022-08-19T09:35:14;25.50;81.40
38788;DHT22;24536;45.488;12.238;2022-08-19T09:37:42;25.50;81.00
38788;DHT22;24536;45.488;12.238;2022-08-19T09:40:09;25.60;80.50
38788;DHT22;24536;45.488;12.238;2022-08-19T09:42:35;25.60;80.10
38788;DHT22;24536;45.488;12.238;2022-08-19T09:45:01;25.70;79.80
38788;DHT22;24536;45.488;12.238;2022-08-19T09:47:28;25.80;79.60
38788;DHT22;24536;45.488;12.238;2022-08-19T09:49:53;25.80;79.20
38788;DHT22;24536;45.488;12.238;2022-08-19T09:52:20;25.90;79.10
38788;DHT22;24536;45.488;12.238;2022-08-19T09:54:45;26.00;79.30
38788;DHT22;24536;45.488;12.238;2022-08-19T09:57:11;26.10;79.40
38788;DHT22;24536;45.488;12.238;2022-08-19T09:59:38;26.20;79.00
38788;DHT22;24536;45.488;12.238;2022-08-19T10:02:04;26.30;78.70
38788;DHT22;24536;45.488;12.238;2022-08-19T10:04:30;26.30;78.40
38788;DHT22;24536;45.488;12.238;2022-08-19T10:07:14;26.40;77.80
38788;DHT22;24536;45.488;12.238;2022-08-19T10:09:40;26.40;77.80
38788;DHT22;24536;45.488;12.238;2022-08-19T10:12:07;26.50;78.00
38788;DHT22;24536;45.488;12.238;2022-08-19T10:14:33;26.60;78.10
38788;DHT22;24536;45.488;12.238;2022-08-19T10:17:00;26.70;78.20
38788;DHT22;24536;45.488;12.238;2022-08-19T10:19:27;26.80;78.10
38788;DHT22;24536;45.488;12.238;2022-08-19T10:21:56;26.80;77.70
38788;DHT22;24536;45.488;12.238;2022-08-19T10:24:21;26.80;76.60
38788;DHT22;24536;45.488;12.238;2022-08-19T10:26:49;26.80;76.40
38788;DHT22;24536;45.488;12.238;2022-08-19T10:29:15;26.90;76.60
38788;DHT22;24536;45.488;12.238;2022-08-19T10:31:41;26.90;76.70
38788;DHT22;24536;45.488;12.238;2022-08-19T10:34:08;27.00;76.80
38788;DHT22;24536;45.488;12.238;2022-08-19T10:36:35;27.10;76.30
38788;DHT22;24536;45.488;12.238;2022-08-19T10:39:08;27.20;76.00
38788;DHT22;24536;45.488;12.238;2022-08-19T10:41:37;27.20;75.60
38788;DHT22;24536;45.488;12.238;2022-08-19T10:44:06;27.20;74.70
38788;DHT22;24536;45.488;12.238;2022-08-19T10:46:35;27.20;74.60
38788;DHT22;24536;45.488;12.238;2022-08-19T10:49:03;27.30;74.60
38788;DHT22;24536;45.488;12.238;2022-08-19T10:51:30;27.30;74.70
38788;DHT22;24536;45.488;12.238;2022-08-19T10:54:28;27.40;74.50
38788;DHT22;24536;45.488;12.238;2022-08-19T10:57:15;27.50;74.40
38788;DHT22;24536;45.488;12.238;2022-08-19T10:59:41;27.60;74.30
38788;DHT22;24536;45.488;12.238;2022-08-19T11:02:09;27.70;74.60
38788;DHT22;24536;45.488;12.238;2022-08-19T11:04:37;27.80;75.10
38788;DHT22;24536;45.488;12.238;2022-08-19T11:07:04;27.90;74.70
38788;DHT22;24536;45.488;12.238;2022-08-19T11:09:30;28.00;75.30
38788;DHT22;24536;45.488;12.238;2022-08-19T11:11:56;28.00;74.90
38788;DHT22;24536;45.488;12.238;2022-08-19T11:14:23;28.00;74.90
38788;DHT22;24536;45.488;12.238;2022-08-19T11:16:52;28.10;75.80
38788;DHT22;24536;45.488;12.238;2022-08-19T11:19:22;28.20;75.20
38788;DHT22;24536;45.488;12.238;2022-08-19T11:21:49;28.30;75.70
38788;DHT22;24536;45.488;12.238;2022-08-19T11:24:21;28.40;75.00
38788;DHT22;24536;45.488;12.238;2022-08-19T11:26:48;28.40;74.50
38788;DHT22;24536;45.488;12.238;2022-08-19T11:29:16;28.50;74.60
38788;DHT22;24536;45.488;12.238;2022-08-19T11:31:45;28.50;74.80
38788;DHT22;24536;45.488;12.238;2022-08-19T11:34:15;28.50;74.80
38788;DHT22;24536;45.488;12.238;2022-08-19T11:36:43;28.40;74.50
38788;DHT22;24536;45.488;12.238;2022-08-19T11:39:12;28.40;74.80
38788;DHT22;24536;45.488;12.238;2022-08-19T11:41:39;28.60;75.20
38788;DHT22;24536;45.488;12.238;2022-08-19T11:44:05;28.60;75.20
38788;DHT22;24536;45.488;12.238;2022-08-19T11:46:34;28.80;74.60
38788;DHT22;24536;45.488;12.238;2022-08-19T11:49:00;28.70;74.70
38788;DHT22;24536;45.488;12.238;2022-08-19T11:51:27;28.70;75.00
38788;DHT22;24536;45.488;12.238;2022-08-19T11:53:54;28.80;74.90
38788;DHT22;24536;45.488;12.238;2022-08-19T11:56:21;28.90;74.30
38788;DHT22;24536;45.488;12.238;2022-08-19T11:58:47;28.90;74.40
38788;DHT22;24536;45.488;12.238;2022-08-19T12:01:16;28.90;74.20
38788;DHT22;24536;45.488;12.238;2022-08-19T12:03:43;29.00;71.60
38788;DHT22;24536;45.488;12.238;2022-08-19T12:06:13;29.00;72.80
38788;DHT22;24536;45.488;12.238;2022-08-19T12:08:43;29.10;72.10
38788;DHT22;24536;45.488;12.238;2022-08-19T12:11:10;29.10;69.80
38788;DHT22;24536;45.488;12.238;2022-08-19T12:13:37;29.20;70.30
38788;DHT22;24536;45.488;12.238;2022-08-19T12:16:13;29.30;68.10
38788;DHT22;24536;45.488;12.238;2022-08-19T12:18:41;29.40;69.50
38788;DHT22;24536;45.488;12.238;2022-08-19T12:21:09;29.50;69.50
38788;DHT22;24536;45.488;12.238;2022-08-19T12:23:36;29.50;68.70
38788;DHT22;24536;45.488;12.238;2022-08-19T12:26:03;29.60;68.90
38788;DHT22;24536;45.488;12.238;2022-08-19T12:28:30;29.60;68.80
38788;DHT22;24536;45.488;12.238;2022-08-19T12:30:56;29.50;68.00
38788;DHT22;24536;45.488;12.238;2022-08-19T12:33:22;29.50;68.80
38788;DHT22;24536;45.488;12.238;2022-08-19T12:35:51;29.50;69.20
38788;DHT22;24536;45.488;12.238;2022-08-19T12:38:17;29.50;68.10
38788;DHT22;24536;45.488;12.238;2022-08-19T12:40:45;29.40;67.80
38788;DHT22;24536;45.488;12.238;2022-08-19T12:43:12;29.30;68.00
38788;DHT22;24536;45.488;12.238;2022-08-19T12:45:37;29.30;68.40
38788;DHT22;24536;45.488;12.238;2022-08-19T12:48:05;29.30;68.40
38788;DHT22;24536;45.488;12.238;2022-08-19T12:50:31;29.30;67.80
38788;DHT22;24536;45.488;12.238;2022-08-19T12:52:57;29.30;67.50
38788;DHT22;24536;45.488;12.238;2022-08-19T12:55:23;29.20;67.50
38788;DHT22;24536;45.488;12.238;2022-08-19T12:57:50;29.20;67.60
38788;DHT22;24536;45.488;12.238;2022-08-19T13:00:19;29.10;67.80
38788;DHT22;24536;45.488;12.238;2022-08-19T13:02:47;29.10;68.50
38788;DHT22;24536;45.488;12.238;2022-08-19T13:05:17;29.20;67.70
38788;DHT22;24536;45.488;12.238;2022-08-19T13:07:45;29.30;67.90
38788;DHT22;24536;45.488;12.238;2022-08-19T13:10:14;29.40;68.20
38788;DHT22;24536;45.488;12.238;2022-08-19T13:12:41;29.50;68.00
38788;DHT22;24536;45.488;12.238;2022-08-19T13:15:08;29.50;67.30
38788;DHT22;24536;45.488;12.238;2022-08-19T13:17:34;29.50;67.00
38788;DHT22;24536;45.488;12.238;2022-08-19T13:20:01;29.60;66.60
38788;DHT22;24536;45.488;12.238;2022-08-19T13:22:26;29.60;66.90
38788;DHT22;24536;45.488;12.238;2022-08-19T13:24:52;29.60;66.30
38788;DHT22;24536;45.488;12.238;2022-08-19T13:27:18;29.70;66.10
38788;DHT22;24536;45.488;12.238;2022-08-19T13:29:44;29.70;66.10
38788;DHT22;24536;45.488;12.238;2022-08-19T13:32:31;29.80;66.10
38788;DHT22;24536;45.488;12.238;2022-08-19T13:35:16;29.80;65.50
38788;DHT22;24536;45.488;12.238;2022-08-19T13:37:42;29.90;65.40
38788;DHT22;24536;45.488;12.238;2022-08-19T13:40:22;29.90;65.30
38788;DHT22;24536;45.488;12.238;2022-08-19T13:42:51;30.00;65.30
38788;DHT22;24536;45.488;12.238;2022-08-19T13:45:20;30.00;65.70
38788;DHT22;24536;45.488;12.238;2022-08-19T13:47:48;30.00;65.80
38788;DHT22;24536;45.488;12.238;2022-08-19T13:50:17;30.10;65.40
38788;DHT22;24536;45.488;12.238;2022-08-19T13:52:43;30.20;65.00
38788;DHT22;24536;45.488;12.238;2022-08-19T13:55:10;30.20;64.50
38788;DHT22;24536;45.488;12.238;2022-08-19T13:57:36;30.10;64.10
38788;DHT22;24536;45.488;12.238;2022-08-19T14:00:08;30.10;64.40
38788;DHT22;24536;45.488;12.238;2022-08-19T14:02:36;30.10;64.40
38788;DHT22;24536;45.488;12.238;2022-08-19T14:05:04;30.10;64.50
38788;DHT22;24536;45.488;12.238;2022-08-19T14:07:31;30.10;64.40
38788;DHT22;24536;45.488;12.238;2022-08-19T14:09:57;30.10;64.40
38788;DHT22;24536;45.488;12.238;2022-08-19T14:12:23;30.10;64.20
38788;DHT22;24536;45.488;12.238;2022-08-19T14:14:49;30.10;64.00
38788;DHT22;24536;45.488;12.238;2022-08-19T14:17:14;30.10;63.80
38788;DHT22;24536;45.488;12.238;2022-08-19T14:19:41;30.00;63.70
38788;DHT22;24536;45.488;12.238;2022-08-19T14:22:07;29.90;63.90
38788;DHT22;24536;45.488;12.238;2022-08-19T14:24:33;29.90;64.60
38788;DHT22;24536;45.488;12.238;2022-08-19T14:26:59;29.80;64.30
38788;DHT22;24536;45.488;12.238;2022-08-19T14:29:25;29.80;64.90
38788;DHT22;24536;45.488;12.238;2022-08-19T14:31:53;29.70;65.10
38788;DHT22;24536;45.488;12.238;2022-08-19T14:34:18;29.60;65.50
38788;DHT22;24536;45.488;12.238;2022-08-19T14:36:44;29.60;65.90
38788;DHT22;24536;45.488;12.238;2022-08-19T14:39:10;29.50;66.10
38788;DHT22;24536;45.488;12.238;2022-08-19T14:41:40;29.50;66.10
38788;DHT22;24536;45.488;12.238;2022-08-19T14:44:07;29.40;66.30
38788;DHT22;24536;45.488;12.238;2022-08-19T14:46:35;29.40;66.80
38788;DHT22;24536;45.488;12.238;2022-08-19T14:49:01;29.40;66.50
38788;DHT22;24536;45.488;12.238;2022-08-19T14:51:27;29.30;66.40
38788;DHT22;24536;45.488;12.238;2022-08-19T14:53:53;29.30;66.30
38788;DHT22;24536;45.488;12.238;2022-08-19T14:56:23;29.20;66.40
38788;DHT22;24536;45.488;12.238;2022-08-19T14:58:49;29.10;66.80
38788;DHT22;24536;45.488;12.238;2022-08-19T15:01:19;29.10;66.40
38788;DHT22;24536;45.488;12.238;2022-08-19T15:03:46;29.10;66.80
38788;DHT22;24536;45.488;12.238;2022-08-19T15:06:12;29.10;66.80
38788;DHT22;24536;45.488;12.238;2022-08-19T15:08:40;29.10;66.70
38788;DHT22;24536;45.488;12.238;2022-08-19T15:11:12;29.00;66.60
38788;DHT22;24536;45.488;12.238;2022-08-19T15:13:40;29.00;66.70
38788;DHT22;24536;45.488;12.238;2022-08-19T15:16:07;29.00;66.80
38788;DHT22;24536;45.488;12.238;2022-08-19T15:18:33;28.90;66.80
38788;DHT22;24536;45.488;12.238;2022-08-19T15:21:00;28.80;66.70
38788;DHT22;24536;45.488;12.238;2022-08-19T15:23:27;28.80;67.00
38788;DHT22;24536;45.488;12.238;2022-08-19T15:25:52;28.80;67.10